Patterson Heights, Pennsylvania
Current Conditions -  °F | °C
As of 10:47 AM on Wednesday 28 Jan 2015 (Local Time) from KBVI Reporting Station
Clear Clear  
Wind Chill: -10°   Ceiling: Unl
Heat Index: -10°   Visibility: 10mi
Dew Point: -11°   Wind: 3mph
Humidity: 93%   Direction: 260°W
Pressure: 30.33"   Gusts: NA
Location:  40.7641°N, 80.3864°W
Report Text: KBVI 281547Z 26003KT 10SM CLR M10/M11 A3033
Loading
Personal Weather Stations






























Interactive Weather Map New forecast layout! Learn more

10-Day Weather Forecast

Advertisements
Track Severe Weather on mobile